Time;durP1;ratioP1;P1;durP2;ratioP2;P2;SDS_P1;SDS_P2;PMS_P1;PMS_P2;Temp;Humidity;BMP_temperature;BMP_pressure;BME280_temperature;BME280_humidity;BME280_pressure;Samples;Min_cycle;Max_cycle;Signal;HPM_P1;HPM_P2
2021/03/17 00:02:25;;;;;;;1.55;1.42;;;3.30;1.00;;;;;;5138380;27;20179;-68
2021/03/17 00:04:51;;;;;;;4.03;1.50;;;3.20;78.70;;;;;;5138055;27;20208;-67
2021/03/17 00:07:16;;;;;;;2.53;1.30;;;3.10;1.00;;;;;;5137253;27;20206;-70
2021/03/17 00:09:42;;;;;;;3.10;1.20;;;3.10;99.90;;;;;;5137589;27;20514;-69
2021/03/17 00:12:09;;;;;;;8.63;2.67;;;3.20;99.90;;;;;;5138582;27;20348;-67
2021/03/17 00:14:34;;;;;;;2.05;1.50;;;3.20;1.00;;;;;;5139706;27;20224;-66
2021/03/17 00:17:00;;;;;;;6.10;2.07;;;3.20;99.90;;;;;;5139124;27;20229;-69
2021/03/17 00:19:25;;;;;;;2.80;1.00;;;3.30;99.90;;;;;;5140997;27;20239;-69
2021/03/17 00:21:51;;;;;;;5.30;1.77;;;3.20;99.90;;;;;;5146219;27;20236;-68
2021/03/17 00:24:17;;;;;;;1.97;1.40;;;3.20;99.90;;;;;;5137936;27;20170;-68
2021/03/17 00:26:42;;;;;;;6.07;1.67;;;3.20;99.90;;;;;;5137423;27;20611;-68
2021/03/17 00:29:08;;;;;;;4.20;1.60;;;3.10;99.90;;;;;;5137361;27;20182;-67
2021/03/17 00:31:33;;;;;;;5.53;2.00;;;2.90;99.90;;;;;;5137546;27;20631;-67
2021/03/17 00:33:59;;;;;;;1.40;1.00;;;2.90;1.00;;;;;;5137611;27;20254;-66
2021/03/17 00:36:25;;;;;;;3.67;1.33;;;3.10;1.00;;;;;;5137737;27;20202;-66
2021/03/17 00:38:50;;;;;;;1.73;1.27;;;3.20;1.00;;;;;;5138533;27;20202;-69
2021/03/17 00:41:16;;;;;;;2.10;1.30;;;3.40;1.00;;;;;;5137900;27;20674;-67
2021/03/17 00:43:41;;;;;;;6.33;2.00;;;3.30;99.90;;;;;;5138486;27;20237;-68
2021/03/17 00:46:07;;;;;;;6.63;2.30;;;3.20;99.90;;;;;;5138869;27;20182;-70
2021/03/17 00:48:32;;;;;;;9.10;3.53;;;3.20;1.00;;;;;;5139297;27;20182;-70
2021/03/17 00:50:58;;;;;;;3.77;1.30;;;3.20;1.00;;;;;;5138246;27;20186;-66
2021/03/17 00:53:24;;;;;;;6.10;2.08;;;3.10;1.00;;;;;;5140173;27;20204;-66
2021/03/17 00:55:50;;;;;;;7.40;1.70;;;2.80;19.60;;;;;;5137816;27;20206;-65
2021/03/17 00:58:15;;;;;;;5.10;1.20;;;2.90;99.90;;;;;;5139949;27;20206;-65
2021/03/17 01:00:41;;;;;;;7.93;1.73;;;2.80;99.90;;;;;;5140359;27;20199;-67
2021/03/17 01:03:07;;;;;;;6.00;2.13;;;2.60;99.90;;;;;;5140066;27;20227;-67
2021/03/17 01:05:33;;;;;;;6.00;1.77;;;2.40;99.90;;;;;;5141532;27;20206;-69
2021/03/17 01:07:59;;;;;;;4.07;1.50;;;2.40;1.00;;;;;;5139913;27;20186;-69
2021/03/17 01:10:37;;;;;;;5.63;1.42;;;2.30;1.00;;;;;;5138132;27;20447;-66
2021/03/17 01:13:03;;;;;;;3.50;2.30;;;2.40;1.00;;;;;;5127772;27;20270;-68
2021/03/17 01:15:29;;;;;;;2.63;1.50;;;2.40;1.00;;;;;;5130260;27;20215;-70
2021/03/17 01:17:55;;;;;;;3.10;1.80;;;2.40;1.00;;;;;;5140300;27;20182;-67
2021/03/17 01:20:26;;;;;;;4.17;1.83;;;2.40;1.00;;;;;;5137580;27;20182;-65
2021/03/17 01:22:54;;;;;;;5.95;1.52;;;2.50;1.00;;;;;;5140270;27;20175;-66
2021/03/17 01:25:37;;;;;;;3.08;2.10;;;2.50;1.00;;;;;;5133931;27;20205;-67
2021/03/17 01:28:06;;;;;;;3.92;1.77;;;2.50;1.00;;;;;;5129393;27;20273;-67
2021/03/17 01:30:35;;;;;;;8.00;1.65;;;2.60;99.90;;;;;;5130777;27;20404;-67
2021/03/17 01:33:02;;;;;;;3.17;1.55;;;2.50;99.90;;;;;;5134817;27;20198;-68
2021/03/17 01:35:31;;;;;;;1.95;1.52;;;2.40;99.90;;;;;;5136327;27;20199;-67
2021/03/17 01:37:57;;;;;;;4.60;1.50;;;2.60;99.90;;;;;;5125786;27;20203;-68
2021/03/17 01:40:25;;;;;;;6.07;1.40;;;2.80;99.90;;;;;;5136521;27;20551;-68
2021/03/17 01:42:51;;;;;;;2.45;1.15;;;3.00;99.90;;;;;;5133682;27;20182;-65
2021/03/17 01:45:17;;;;;;;1.85;1.15;;;3.00;99.90;;;;;;5130036;27;20224;-73
2021/03/17 01:47:44;;;;;;;3.65;1.38;;;2.80;46.50;;;;;;5126045;27;20205;-67
2021/03/17 01:50:16;;;;;;;5.18;1.50;;;2.60;99.90;;;;;;5136765;27;20544;-69
2021/03/17 01:52:43;;;;;;;2.35;1.38;;;2.50;99.90;;;;;;5133678;27;20730;-66
2021/03/17 01:55:10;;;;;;;2.80;1.05;;;2.70;99.90;;;;;;5131289;27;20237;-73
2021/03/17 01:57:37;;;;;;;7.80;1.60;;;2.60;99.90;;;;;;5134108;27;20608;-65
2021/03/17 02:00:12;;;;;;;3.30;1.83;;;2.60;99.90;;;;;;5129126;27;20240;-65
2021/03/17 02:02:43;;;;;;;2.50;1.40;;;2.50;99.90;;;;;;5133529;27;20186;-64
2021/03/17 02:05:12;;;;;;;6.47;1.50;;;2.40;99.90;;;;;;5133431;27;20186;-69
2021/03/17 02:07:38;;;;;;;2.15;1.00;;;2.50;99.90;;;;;;5129443;27;20780;-67
2021/03/17 02:10:16;;;;;;;3.47;1.70;;;2.70;99.90;;;;;;5133200;28;20221;-67
2021/03/17 02:13:15;;;;;;;3.95;1.30;;;2.60;99.90;;;;;;5127411;28;20190;-66
2021/03/17 02:16:02;;;;;;;4.40;1.30;;;2.50;99.90;;;;;;5134376;28;20209;-73
2021/03/17 02:19:09;;;;;;;3.80;1.50;;;2.40;99.90;;;;;;5130057;28;20174;-67
2021/03/17 02:21:53;;;;;;;2.17;1.13;;;2.40;99.90;;;;;;5125848;27;20262;-67
2021/03/17 02:24:41;;;;;;;2.85;1.20;;;2.40;99.90;;;;;;5132411;28;20183;-66
2021/03/17 02:27:45;;;;;;;3.35;1.13;;;2.40;99.90;;;;;;5136528;27;20189;-66
2021/03/17 02:30:13;;;;;;;3.50;1.58;;;2.40;99.90;;;;;;5130884;28;20226;-69
2021/03/17 02:32:51;;;;;;;5.38;1.52;;;2.40;99.90;;;;;;5137122;27;20184;-65
2021/03/17 02:35:20;;;;;;;7.32;1.10;;;2.40;99.90;;;;;;5140389;27;20513;-66
2021/03/17 02:37:48;;;;;;;3.20;1.00;;;2.30;99.90;;;;;;5141068;27;20607;-67
2021/03/17 02:40:21;;;;;;;10.32;3.85;;;2.40;99.90;;;;;;5136729;27;20206;-66
2021/03/17 02:42:59;;;;;;;10.07;2.58;;;2.40;99.90;;;;;;5136191;27;20179;-67
2021/03/17 02:45:28;;;;;;;2.13;0.95;;;2.30;95.20;;;;;;5132719;27;20300;-67
2021/03/17 02:48:04;;;;;;;8.25;1.58;;;2.20;98.30;;;;;;5141068;27;20269;-72
2021/03/17 02:50:32;;;;;;;2.65;1.10;;;2.20;99.90;;;;;;5140726;27;20185;-69
2021/03/17 02:53:00;;;;;;;2.25;1.27;;;2.10;99.90;;;;;;5141247;27;20181;-69
2021/03/17 02:55:31;;;;;;;4.40;1.30;;;2.10;99.90;;;;;;5140514;27;20293;-66
2021/03/17 02:57:58;;;;;;;1.40;1.00;;;2.10;99.90;;;;;;5140764;27;20604;-69
2021/03/17 03:00:27;;;;;;;4.13;1.10;;;2.20;99.90;;;;;;5140775;27;20182;-65
2021/03/17 03:02:53;;;;;;;5.28;1.20;;;2.10;99.90;;;;;;5140665;27;20190;-65
2021/03/17 03:05:19;;;;;;;3.33;1.33;;;2.20;99.90;;;;;;5139681;27;20178;-69
2021/03/17 03:07:48;;;;;;;4.07;1.25;;;2.20;99.90;;;;;;5140176;27;20536;-66
2021/03/17 03:10:17;;;;;;;5.40;1.67;;;2.20;99.90;;;;;;5140512;27;20175;-65
2021/03/17 03:12:43;;;;;;;3.08;1.20;;;2.20;99.90;;;;;;5140639;27;20174;-67
2021/03/17 03:15:10;;;;;;;2.25;1.35;;;2.20;99.90;;;;;;5139588;27;20694;-66
2021/03/17 03:17:38;;;;;;;4.53;1.50;;;2.20;99.90;;;;;;5139182;27;20622;-67
2021/03/17 03:20:09;;;;;;;7.97;1.98;;;2.10;99.90;;;;;;5140247;27;20200;-66
2021/03/17 03:22:39;;;;;;;4.63;1.38;;;2.10;99.90;;;;;;5139444;27;20578;-66
2021/03/17 03:25:05;;;;;;;5.03;2.00;;;2.20;99.90;;;;;;5140626;27;20257;-66
2021/03/17 03:27:32;;;;;;;2.10;1.15;;;2.20;99.90;;;;;;5140698;27;20182;-66
2021/03/17 03:29:59;;;;;;;9.80;2.28;;;2.20;99.90;;;;;;5140917;27;20174;-66
2021/03/17 03:32:25;;;;;;;6.40;1.70;;;2.30;99.90;;;;;;5140247;27;20167;-66
2021/03/17 03:34:50;;;;;;;2.10;1.17;;;2.30;99.90;;;;;;5140252;27;20254;-65
2021/03/17 03:37:16;;;;;;;2.20;1.13;;;2.30;99.90;;;;;;5140515;27;20202;-65
2021/03/17 03:39:42;;;;;;;3.67;0.93;;;2.30;99.90;;;;;;5140361;27;20250;-64
2021/03/17 03:42:11;;;;;;;3.53;1.93;;;2.30;99.90;;;;;;5140888;27;20181;-67
2021/03/17 03:44:37;;;;;;;2.80;0.90;;;2.20;99.90;;;;;;5139884;27;20224;-65
2021/03/17 03:47:03;;;;;;;2.60;1.50;;;2.30;99.90;;;;;;5140677;27;20186;-66
2021/03/17 03:49:28;;;;;;;4.93;1.50;;;2.30;99.90;;;;;;5140950;27;20355;-66
2021/03/17 03:52:07;;;;;;;8.90;1.87;;;2.30;99.90;;;;;;5141312;27;20231;-66
2021/03/17 03:55:21;;;;;;;4.53;1.02;;;2.20;99.90;;;;;;5141450;27;20170;-66
2021/03/17 03:57:49;;;;;;;5.47;1.85;;;2.20;99.90;;;;;;5141290;27;20190;-69
2021/03/17 04:00:23;;;;;;;1.60;1.40;;;2.20;99.90;;;;;;5138975;27;20269;-68
2021/03/17 04:02:55;;;;;;;4.70;1.70;;;2.20;99.90;;;;;;5140008;27;20248;-69
2021/03/17 04:05:25;;;;;;;3.35;1.67;;;2.20;1.00;;;;;;5140229;27;20568;-71
2021/03/17 04:07:54;;;;;;;8.13;2.13;;;2.20;1.00;;;;;;5140962;27;20190;-66
2021/03/17 04:10:23;;;;;;;6.15;1.88;;;2.20;1.00;;;;;;5141732;27;20174;-69
2021/03/17 04:12:54;;;;;;;1.30;1.15;;;2.20;1.00;;;;;;5139324;27;20189;-69
2021/03/17 04:15:20;;;;;;;3.58;1.13;;;2.20;1.00;;;;;;5138043;27;20214;-69
2021/03/17 04:17:54;;;;;;;5.25;1.35;;;2.20;1.00;;;;;;5138626;27;20572;-69
2021/03/17 04:20:25;;;;;;;4.13;1.15;;;2.20;1.00;;;;;;5139058;27;20181;-69
2021/03/17 04:22:53;;;;;;;4.65;1.05;;;2.10;1.00;;;;;;5138958;27;20159;-70
2021/03/17 04:25:23;;;;;;;1.80;1.25;;;2.10;1.00;;;;;;5138905;27;20201;-69
2021/03/17 04:27:51;;;;;;;7.00;1.50;;;2.10;1.00;;;;;;5138628;27;20179;-68
2021/03/17 04:30:19;;;;;;;3.35;1.40;;;2.10;1.00;;;;;;5139641;27;20599;-69
2021/03/17 04:32:47;;;;;;;5.57;1.88;;;2.10;1.00;;;;;;5139270;27;20179;-69
2021/03/17 04:35:15;;;;;;;3.03;1.58;;;2.10;1.00;;;;;;5138198;27;20215;-69
2021/03/17 04:37:44;;;;;;;3.45;1.58;;;2.00;1.00;;;;;;5138826;27;20170;-69
2021/03/17 04:40:12;;;;;;;3.13;1.13;;;2.00;1.00;;;;;;5135903;27;20315;-69
2021/03/17 04:42:41;;;;;;;6.28;1.40;;;2.00;1.00;;;;;;5138437;27;20170;-66
2021/03/17 04:45:10;;;;;;;1.90;1.45;;;1.90;1.00;;;;;;5141605;27;20203;-66
2021/03/17 04:47:38;;;;;;;1.95;1.30;;;2.00;1.00;;;;;;5140986;27;20559;-66
2021/03/17 04:50:06;;;;;;;3.60;1.48;;;2.00;1.00;;;;;;5140571;27;20174;-66
2021/03/17 04:52:36;;;;;;;2.58;0.90;;;1.80;1.00;;;;;;5141502;27;20607;-66
2021/03/17 04:55:03;;;;;;;4.25;1.60;;;1.80;1.00;;;;;;5139183;27;20598;-66
2021/03/17 04:57:33;;;;;;;2.45;1.35;;;1.80;1.00;;;;;;5139260;27;20183;-65
2021/03/17 05:00:11;;;;;;;2.60;1.23;;;1.90;1.00;;;;;;5138386;27;20451;-65
2021/03/17 05:02:40;;;;;;;1.30;1.20;;;1.90;1.00;;;;;;5136441;27;20262;-69
2021/03/17 05:05:10;;;;;;;3.85;1.48;;;1.90;1.00;;;;;;5137090;27;20170;-68
2021/03/17 05:07:39;;;;;;;4.43;2.22;;;2.00;1.00;;;;;;5136539;27;20204;-68
2021/03/17 05:10:07;;;;;;;2.60;1.40;;;2.00;1.00;;;;;;5136266;27;20265;-69
2021/03/17 05:12:33;;;;;;;5.32;1.25;;;1.90;1.00;;;;;;5137615;27;20178;-69
2021/03/17 05:14:59;;;;;;;7.97;2.90;;;2.00;1.00;;;;;;5137152;27;20228;-71
2021/03/17 05:17:26;;;;;;;2.28;1.20;;;2.00;1.00;;;;;;5137647;27;20181;-69
2021/03/17 05:19:52;;;;;;;1.63;1.00;;;2.00;1.00;;;;;;5137296;27;20171;-69
2021/03/17 05:22:18;;;;;;;7.75;2.03;;;2.10;1.00;;;;;;5137485;27;20167;-69
2021/03/17 05:24:44;;;;;;;2.88;2.10;;;2.00;1.00;;;;;;5136937;27;20166;-69
2021/03/17 05:27:19;;;;;;;9.70;4.55;;;1.80;1.00;;;;;;5136698;27;20175;-69
2021/03/17 05:29:45;;;;;;;3.30;1.92;;;1.90;1.00;;;;;;5137796;27;20231;-69
2021/03/17 05:32:13;;;;;;;1.58;1.30;;;1.80;1.00;;;;;;5137032;27;20193;-69
2021/03/17 05:34:54;;;;;;;4.32;2.28;;;1.60;1.00;;;;;;5137034;27;20505;-69
2021/03/17 05:37:19;;;;;;;1.70;1.30;;;1.60;1.00;;;;;;5137296;27;20194;-69
2021/03/17 05:39:45;;;;;;;5.87;2.03;;;1.60;1.00;;;;;;5137183;27;20179;-73
2021/03/17 05:42:12;;;;;;;5.27;1.30;;;1.80;1.00;;;;;;5137130;27;20179;-69
2021/03/17 05:44:39;;;;;;;3.75;2.50;;;1.70;1.00;;;;;;5136418;27;20196;-69
2021/03/17 05:47:04;;;;;;;3.47;1.80;;;1.70;1.00;;;;;;5135858;27;20194;-69
2021/03/17 05:49:30;;;;;;;3.67;2.13;;;1.60;1.00;;;;;;5137079;27;20497;-69
2021/03/17 05:51:57;;;;;;;3.37;1.93;;;1.70;1.00;;;;;;5137135;27;20178;-72
2021/03/17 05:54:22;;;;;;;4.43;2.15;;;1.70;1.00;;;;;;5135769;27;20459;-69
2021/03/17 05:56:50;;;;;;;5.27;2.53;;;1.80;1.00;;;;;;5136992;27;20203;-69
2021/03/17 05:59:16;;;;;;;5.35;1.30;;;1.80;1.00;;;;;;5136834;27;20179;-69
2021/03/17 06:01:42;;;;;;;4.00;1.40;;;1.80;1.00;;;;;;5136425;27;20472;-69
2021/03/17 06:04:08;;;;;;;8.47;2.03;;;1.90;1.00;;;;;;5136764;27;20457;-69
2021/03/17 06:06:38;;;;;;;3.60;1.97;;;2.00;1.00;;;;;;5136556;27;20447;-69
2021/03/17 06:09:04;;;;;;;5.45;1.80;;;2.10;1.00;;;;;;5136206;27;20922;-70
2021/03/17 06:11:32;;;;;;;8.82;2.67;;;2.20;1.00;;;;;;5136421;27;20269;-69
2021/03/17 06:13:59;;;;;;;6.47;2.15;;;2.40;1.00;;;;;;5136442;27;20174;-69
2021/03/17 06:16:26;;;;;;;5.18;2.10;;;2.40;1.00;;;;;;5136693;27;20652;-70
2021/03/17 06:19:00;;;;;;;7.10;2.20;;;2.60;1.00;;;;;;5136524;27;20185;-66
2021/03/17 06:21:25;;;;;;;3.85;1.73;;;2.70;99.90;;;;;;5135404;27;20259;-65
2021/03/17 06:23:52;;;;;;;2.30;1.37;;;2.80;99.90;;;;;;5135500;28;20599;-65
2021/03/17 06:26:18;;;;;;;4.00;2.60;;;3.00;99.90;;;;;;5134642;28;20199;-64
2021/03/17 06:28:45;;;;;;;2.80;1.65;;;3.60;99.90;;;;;;5135757;27;20515;-64
2021/03/17 06:31:12;;;;;;;6.97;2.97;;;4.20;99.90;;;;;;5136352;27;20171;-65
2021/03/17 06:33:39;;;;;;;3.53;1.75;;;3.90;1.00;;;;;;5136122;27;20299;-65
2021/03/17 06:36:20;;;;;;;4.72;1.85;;;3.40;1.00;;;;;;5136338;27;20190;-65
2021/03/17 06:38:47;;;;;;;3.45;1.80;;;3.90;99.90;;;;;;5136417;27;20265;-68
2021/03/17 06:41:15;;;;;;;6.90;2.53;;;4.60;1.00;;;;;;5135990;27;20167;-65
2021/03/17 06:43:45;;;;;;;3.55;2.10;;;5.00;99.90;;;;;;5133839;28;20182;-65
2021/03/17 06:46:13;;;;;;;4.68;2.35;;;5.20;99.90;;;;;;5135541;27;20171;-65
2021/03/17 06:48:40;;;;;;;4.78;2.75;;;4.60;99.90;;;;;;5135563;27;20629;-65
2021/03/17 06:51:08;;;;;;;9.88;2.60;;;4.40;99.90;;;;;;5135552;27;20206;-65
2021/03/17 06:53:36;;;;;;;2.88;1.98;;;4.40;1.00;;;;;;5135593;28;20186;-65
2021/03/17 06:56:26;;;;;;;6.38;2.17;;;4.30;99.90;;;;;;5135865;27;20213;-66
2021/03/17 06:58:53;;;;;;;7.00;1.90;;;4.30;1.00;;;;;;5135857;27;20171;-66
2021/03/17 07:01:32;;;;;;;6.93;1.92;;;4.30;1.00;;;;;;5135642;28;20180;-65
2021/03/17 07:03:59;;;;;;;7.53;1.90;;;4.50;1.00;;;;;;5135336;27;20557;-65
2021/03/17 07:06:25;;;;;;;6.55;2.60;;;4.70;1.00;;;;;;5135932;28;20225;-65
2021/03/17 07:08:51;;;;;;;4.43;2.88;;;4.40;99.90;;;;;;5135089;27;20181;-65
2021/03/17 07:11:26;;;;;;;5.90;2.05;;;4.30;1.00;;;;;;5131263;28;20229;-64
2021/03/17 07:13:57;;;;;;;4.15;1.58;;;4.20;99.90;;;;;;5131009;28;20252;-66
2021/03/17 07:16:34;;;;;;;3.92;1.33;;;4.20;1.00;;;;;;5131099;27;20199;-66
2021/03/17 07:19:00;;;;;;;4.03;1.73;;;4.00;1.00;;;;;;5136879;27;20257;-66
2021/03/17 07:21:37;;;;;;;6.10;1.90;;;4.20;99.90;;;;;;5139899;27;20190;-66
2021/03/17 07:24:05;;;;;;;7.53;4.35;;;4.20;99.90;;;;;;5139737;27;20196;-66
2021/03/17 07:26:34;;;;;;;16.27;3.50;;;4.70;1.00;;;;;;5139787;27;20243;-65
2021/03/17 07:29:11;;;;;;;9.30;2.67;;;4.60;1.00;;;;;;5139539;27;20265;-65
2021/03/17 07:31:50;;;;;;;8.65;2.80;;;4.50;1.00;;;;;;5138815;27;20182;-75
2021/03/17 07:34:26;;;;;;;5.68;2.28;;;4.50;98.60;;;;;;5138745;27;20505;-68
2021/03/17 07:36:52;;;;;;;11.18;3.58;;;4.40;99.90;;;;;;5136757;27;20237;-69
2021/03/17 07:39:51;;;;;;;7.53;3.67;;;4.30;1.00;;;;;;5132464;27;20226;-68
2021/03/17 07:42:20;;;;;;;8.30;3.67;;;4.60;99.90;;;;;;5116792;27;20213;-69
2021/03/17 07:44:46;;;;;;;9.68;3.40;;;4.70;99.90;;;;;;5136532;27;20267;-66
2021/03/17 07:47:13;;;;;;;10.90;4.22;;;4.80;1.00;;;;;;5131458;27;20210;-65
2021/03/17 07:49:44;;;;;;;6.72;3.58;;;4.80;1.00;;;;;;5131910;27;20443;-66
2021/03/17 07:52:30;;;;;;;7.50;3.47;;;4.90;1.00;;;;;;5130619;27;20204;-64
2021/03/17 07:55:08;;;;;;;7.90;4.20;;;5.00;99.90;;;;;;5136030;27;20189;-63
2021/03/17 07:57:34;;;;;;;6.03;4.15;;;5.00;1.00;;;;;;5126309;27;20617;-65
2021/03/17 08:00:00;;;;;;;7.30;4.40;;;5.30;21.20;;;;;;5139136;27;20190;-66
2021/03/17 08:02:26;;;;;;;13.20;3.80;;;5.30;99.90;;;;;;5134839;27;20809;-66
2021/03/17 08:04:52;;;;;;;6.55;3.80;;;5.20;99.90;;;;;;5118213;28;20611;-66
2021/03/17 08:07:19;;;;;;;4.32;3.70;;;4.90;99.90;;;;;;5130250;27;20195;-64
2021/03/17 08:09:45;;;;;;;6.40;4.25;;;4.60;1.00;;;;;;5137906;27;20184;-64
2021/03/17 08:12:12;;;;;;;11.57;4.40;;;4.70;57.90;;;;;;5137690;27;20175;-65
2021/03/17 08:14:41;;;;;;;7.43;3.90;;;4.90;1.00;;;;;;5138375;27;20456;-65
2021/03/17 08:17:13;;;;;;;4.85;3.40;;;4.80;99.90;;;;;;5138705;27;20234;-66
2021/03/17 08:19:39;;;;;;;10.55;4.43;;;4.60;99.90;;;;;;5134327;27;20171;-66
2021/03/17 08:22:06;;;;;;;7.70;4.25;;;4.80;1.00;;;;;;5129360;27;20198;-64
2021/03/17 08:24:38;;;;;;;8.48;5.00;;;5.00;1.00;;;;;;5137902;27;20175;-64
2021/03/17 08:27:06;;;;;;;7.88;4.75;;;4.90;1.00;;;;;;5134276;27;20199;-64
2021/03/17 08:29:43;;;;;;;10.35;4.18;;;4.40;99.90;;;;;;5138113;27;20190;-64
2021/03/17 08:32:10;;;;;;;7.55;4.78;;;4.20;1.00;;;;;;5138243;27;20213;-63
2021/03/17 08:34:38;;;;;;;7.68;4.40;;;4.30;4.60;;;;;;5138457;27;20186;-63
2021/03/17 08:37:05;;;;;;;12.70;4.30;;;4.50;1.00;;;;;;5136827;27;20199;-64
2021/03/17 08:39:32;;;;;;;10.13;5.20;;;4.30;1.00;;;;;;5134448;27;20214;-67
2021/03/17 08:42:11;;;;;;;9.77;4.97;;;4.30;99.90;;;;;;5135488;27;20507;-63
2021/03/17 08:44:40;;;;;;;9.68;5.47;;;4.40;1.00;;;;;;5134798;27;20188;-68
2021/03/17 08:47:42;;;;;;;12.73;6.05;;;4.80;99.90;;;;;;5131457;27;20206;-65
2021/03/17 08:50:20;;;;;;;13.05;6.47;;;5.00;99.90;;;;;;5138366;27;20240;-62
2021/03/17 08:52:48;;;;;;;16.55;5.75;;;4.70;1.00;;;;;;5124763;27;20180;-65
2021/03/17 08:55:22;;;;;;;15.15;6.10;;;4.70;1.00;;;;;;5133959;27;20198;-64
2021/03/17 08:57:52;;;;;;;8.73;5.18;;;5.00;1.00;;;;;;5137727;27;20175;-61
2021/03/17 09:00:46;;;;;;;20.80;11.02;;;5.40;1.00;;;;;;5130851;27;20178;-66
2021/03/17 09:03:30;;;;;;;8.85;5.75;;;5.40;1.00;;;;;;5121569;27;20180;-63
2021/03/17 09:06:23;;;;;;;11.65;5.47;;;5.40;99.90;;;;;;5116807;28;20194;-63
2021/03/17 09:08:52;;;;;;;22.83;12.35;;;5.60;57.40;;;;;;5115791;28;20228;-61
2021/03/17 09:11:29;;;;;;;10.48;6.70;;;5.90;1.00;;;;;;5124625;27;20262;-67
2021/03/17 09:13:58;;;;;;;12.07;6.20;;;6.30;1.00;;;;;;5135999;27;20262;-66
2021/03/17 09:16:25;;;;;;;10.32;5.47;;;6.70;1.00;;;;;;5136091;27;20655;-66
2021/03/17 09:19:16;;;;;;;14.48;6.65;;;5.90;93.50;;;;;;5128954;27;20213;-68
2021/03/17 09:21:45;;;;;;;10.60;5.47;;;6.40;96.10;;;;;;5129155;27;20191;-65
2021/03/17 09:24:32;;;;;;;7.95;4.22;;;6.20;99.90;;;;;;5135454;27;20209;-67
2021/03/17 09:27:06;;;;;;;9.32;5.30;;;6.20;99.90;;;;;;5133469;27;20184;-64
2021/03/17 09:29:33;;;;;;;7.65;5.10;;;6.40;1.00;;;;;;5131802;27;20185;-66
2021/03/17 09:32:00;;;;;;;12.50;6.70;;;6.70;99.90;;;;;;5130117;27;20636;-65
2021/03/17 09:34:33;;;;;;;11.82;5.63;;;7.10;1.00;;;;;;5131015;27;20192;-65
2021/03/17 09:37:10;;;;;;;13.35;6.22;;;7.30;99.90;;;;;;5133360;27;20248;-64
2021/03/17 09:39:37;;;;;;;6.35;5.07;;;7.70;1.00;;;;;;5121675;27;20208;-69
2021/03/17 09:42:04;;;;;;;9.90;5.18;;;6.80;99.90;;;;;;5123548;27;20189;-64
2021/03/17 09:44:29;;;;;;;6.65;4.25;;;7.30;1.00;;;;;;5133068;27;20254;-65
2021/03/17 09:46:55;;;;;;;10.17;5.60;;;7.00;58.70;;;;;;5135324;27;20181;-64
2021/03/17 09:49:23;;;;;;;14.70;5.80;;;7.10;99.90;;;;;;5135305;27;20177;-63
2021/03/17 09:51:55;;;;;;;6.70;4.20;;;7.30;99.90;;;;;;5135452;27;20911;-66
2021/03/17 09:54:27;;;;;;;11.77;5.20;;;7.50;1.00;;;;;;5135822;27;20180;-65
2021/03/17 09:57:04;;;;;;;13.43;6.20;;;7.20;1.00;;;;;;5136075;27;20209;-66
2021/03/17 09:59:31;;;;;;;8.30;4.93;;;6.40;99.90;;;;;;5117731;27;20197;-65
2021/03/17 10:02:03;;;;;;;11.68;5.88;;;5.80;1.00;;;;;;5120574;27;20250;-64
2021/03/17 10:04:35;;;;;;;9.65;6.60;;;5.80;1.00;;;;;;5133564;27;20215;-63
2021/03/17 10:07:03;;;;;;;9.77;6.22;;;5.90;1.00;;;;;;5136199;27;20210;-64
2021/03/17 10:09:31;;;;;;;9.82;6.45;;;5.90;1.00;;;;;;5130860;27;20211;-65
2021/03/17 10:12:03;;;;;;;8.10;5.65;;;6.00;99.90;;;;;;5132602;27;20251;-63
2021/03/17 10:14:30;;;;;;;10.57;6.03;;;5.80;1.00;;;;;;5136178;28;20387;-63
2021/03/17 10:16:58;;;;;;;11.48;5.60;;;5.80;1.00;;;;;;5135732;27;20248;-64
2021/03/17 10:19:23;;;;;;;7.90;4.80;;;6.40;99.90;;;;;;5131156;27;20191;-64
2021/03/17 10:21:54;;;;;;;9.97;5.60;;;6.50;99.90;;;;;;5122474;28;20739;-62
2021/03/17 10:24:37;;;;;;;11.02;5.90;;;6.70;99.90;;;;;;5133598;28;20546;-65
2021/03/17 10:27:06;;;;;;;8.00;5.80;;;6.60;1.00;;;;;;5135479;27;20196;-64
2021/03/17 10:29:32;;;;;;;13.30;7.25;;;6.50;1.00;;;;;;5119550;28;20621;-62
2021/03/17 10:31:58;;;;;;;13.70;5.82;;;6.80;99.90;;;;;;5125917;28;20202;-66
2021/03/17 10:34:26;;;;;;;8.37;6.30;;;6.90;99.90;;;;;;5131736;27;20184;-63
2021/03/17 10:36:52;;;;;;;9.05;5.30;;;6.80;39.40;;;;;;5134445;27;20209;-63
2021/03/17 10:39:24;;;;;;;10.40;5.60;;;7.00;99.90;;;;;;5135048;27;20173;-63
2021/03/17 10:41:50;;;;;;;11.48;6.22;;;6.90;1.00;;;;;;5136212;27;20707;-65
2021/03/17 10:44:21;;;;;;;7.53;5.97;;;6.50;1.00;;;;;;5134469;28;20294;-64
2021/03/17 10:47:08;;;;;;;10.85;5.53;;;6.90;99.90;;;;;;5135327;27;20434;-65
2021/03/17 10:49:37;;;;;;;11.98;5.63;;;7.10;1.00;;;;;;5134342;28;20177;-65
2021/03/17 10:52:03;;;;;;;17.17;5.63;;;6.90;1.00;;;;;;5131388;27;20263;-62
2021/03/17 10:54:30;;;;;;;8.63;5.32;;;7.30;99.90;;;;;;5129045;27;20222;-66
2021/03/17 10:56:56;;;;;;;8.73;6.00;;;7.40;1.00;;;;;;5137543;27;20273;-69
2021/03/17 10:59:27;;;;;;;10.48;5.80;;;7.00;1.00;;;;;;5132695;27;20239;-66
2021/03/17 11:02:23;;;;;;;10.88;5.65;;;7.10;1.00;;;;;;5139093;27;20177;-65
2021/03/17 11:05:16;;;;;;;10.80;6.38;;;6.90;46.10;;;;;;5138741;27;20514;-64
2021/03/17 11:07:48;;;;;;;13.35;5.65;;;6.70;1.00;;;;;;5116337;28;20306;-68
2021/03/17 11:10:32;;;;;;;10.20;5.55;;;7.20;1.00;;;;;;5115859;28;20182;-66
2021/03/17 11:13:22;;;;;;;15.57;6.70;;;6.80;99.90;;;;;;5127204;27;20176;-66
2021/03/17 11:16:05;;;;;;;7.63;4.18;;;6.60;99.90;;;;;;5137976;27;20208;-67
2021/03/17 11:18:44;;;;;;;8.48;5.53;;;6.90;1.00;;;;;;5139739;27;20207;-69
2021/03/17 11:21:21;;;;;;;9.02;5.95;;;6.50;1.00;;;;;;5136746;27;20268;-62
2021/03/17 11:23:47;;;;;;;9.00;6.55;;;6.80;99.90;;;;;;5126587;27;20590;-66
2021/03/17 11:26:23;;;;;;;11.40;5.97;;;7.10;1.00;;;;;;5127630;27;20263;-64
2021/03/17 11:28:49;;;;;;;11.73;6.78;;;7.40;1.00;;;;;;5139015;27;20577;-63
2021/03/17 11:31:30;;;;;;;12.65;6.45;;;6.80;99.90;;;;;;5138382;27;20493;-64
2021/03/17 11:33:57;;;;;;;7.65;5.03;;;6.90;99.90;;;;;;5137599;27;20619;-60
2021/03/17 11:36:23;;;;;;;7.47;6.18;;;6.80;1.00;;;;;;5138363;27;20209;-64
2021/03/17 11:38:49;;;;;;;6.70;4.97;;;6.80;1.00;;;;;;5137066;27;20681;-61
2021/03/17 11:41:15;;;;;;;9.53;5.80;;;7.30;1.00;;;;;;5137837;27;20205;-61
2021/03/17 11:43:41;;;;;;;6.95;5.75;;;7.60;99.90;;;;;;5136384;27;20504;-61
2021/03/17 11:46:07;;;;;;;10.77;6.10;;;7.60;1.00;;;;;;5137763;27;20322;-64
2021/03/17 11:48:36;;;;;;;8.05;5.25;;;7.50;99.90;;;;;;5138924;27;20180;-67
2021/03/17 11:51:07;;;;;;;5.75;4.95;;;7.00;1.00;;;;;;5139095;27;20200;-64
2021/03/17 11:53:34;;;;;;;11.75;6.10;;;6.90;1.00;;;;;;5138541;27;20189;-64
2021/03/17 11:56:00;;;;;;;9.15;5.35;;;7.20;99.90;;;;;;5138894;27;20550;-64
2021/03/17 11:58:27;;;;;;;10.27;4.93;;;7.50;1.00;;;;;;5127432;27;20261;-60
2021/03/17 12:00:52;;;;;;;9.15;4.93;;;7.60;99.90;;;;;;5126245;27;20200;-61
2021/03/17 12:03:18;;;;;;;12.97;5.57;;;7.80;1.00;;;;;;5138554;27;20172;-63
2021/03/17 12:05:44;;;;;;;7.80;5.10;;;7.60;99.90;;;;;;5137386;27;20189;-64
2021/03/17 12:08:11;;;;;;;8.20;5.40;;;8.10;1.00;;;;;;5136693;27;20225;-63
2021/03/17 12:10:37;;;;;;;8.38;4.72;;;8.50;99.90;;;;;;5133566;27;20505;-64
2021/03/17 12:13:03;;;;;;;8.05;5.85;;;8.40;1.00;;;;;;5136623;27;20189;-63
2021/03/17 12:15:29;;;;;;;5.72;4.38;;;8.30;1.00;;;;;;5135123;27;20272;-61
2021/03/17 12:17:55;;;;;;;6.95;5.60;;;8.70;1.00;;;;;;5136060;27;20178;-62
2021/03/17 12:20:24;;;;;;;7.97;5.13;;;7.90;1.00;;;;;;5127164;27;20194;-62
2021/03/17 12:22:50;;;;;;;5.88;4.93;;;7.70;1.00;;;;;;5135460;27;20621;-66
2021/03/17 12:25:16;;;;;;;7.37;4.13;;;7.50;1.00;;;;;;5135877;27;20182;-65
2021/03/17 12:27:42;;;;;;;6.10;4.20;;;7.30;1.00;;;;;;5135467;27;20534;-65
2021/03/17 12:30:11;;;;;;;6.38;4.53;;;7.90;1.00;;;;;;5135294;27;20435;-64
2021/03/17 12:32:37;;;;;;;10.02;4.93;;;8.20;1.00;;;;;;5136576;27;20174;-62
2021/03/17 12:35:05;;;;;;;9.27;4.30;;;8.40;99.90;;;;;;5131860;27;20190;-61
2021/03/17 12:37:30;;;;;;;9.77;4.90;;;8.30;99.90;;;;;;5135167;27;20213;-63
2021/03/17 12:39:56;;;;;;;10.27;4.40;;;8.70;99.90;;;;;;5133200;27;20182;-61
2021/03/17 12:42:22;;;;;;;4.80;3.30;;;8.10;99.90;;;;;;5136330;27;20686;-62
2021/03/17 12:44:47;;;;;;;7.63;3.87;;;8.10;99.90;;;;;;5133462;27;20186;-64
2021/03/17 12:47:13;;;;;;;6.37;3.70;;;8.10;99.90;;;;;;5134422;27;20189;-65
2021/03/17 12:49:39;;;;;;;7.87;3.73;;;8.00;99.90;;;;;;5132233;27;20193;-65
2021/03/17 12:52:05;;;;;;;7.40;3.60;;;8.10;99.90;;;;;;5132816;27;20249;-63
2021/03/17 12:54:30;;;;;;;6.90;3.30;;;8.30;99.90;;;;;;5133779;27;20190;-68
2021/03/17 12:56:56;;;;;;;4.30;3.60;;;9.10;99.90;;;;;;5117042;27;20212;-66
2021/03/17 12:59:21;;;;;;;8.80;3.83;;;8.90;99.90;;;;;;5115906;28;20182;-63
2021/03/17 13:01:48;;;;;;;5.00;4.23;;;9.00;93.60;;;;;;5122984;27;20231;-64
2021/03/17 13:04:13;;;;;;;9.05;4.03;;;9.20;99.90;;;;;;5122802;27;20172;-67
2021/03/17 13:06:39;;;;;;;6.53;4.30;;;9.80;3.70;;;;;;5116332;27;20517;-65
2021/03/17 13:09:06;;;;;;;6.80;3.30;;;10.20;1.00;;;;;;5128938;27;20193;-63
2021/03/17 13:11:36;;;;;;;7.30;3.97;;;10.50;1.00;;;;;;5136234;27;20182;-66
2021/03/17 13:14:06;;;;;;;4.88;2.92;;;10.60;1.00;;;;;;5134711;27;20214;-60
2021/03/17 13:16:32;;;;;;;7.00;3.50;;;10.60;1.00;;;;;;5135339;27;20217;-64